sensor_id;sensor_type;location;lat;lon;timestamp;P1;durP1;ratioP1;P2;durP2;ratioP2
16862;SDS011;52193;48.216;-1.698;2023-06-10T00:01:37;5.20;;;4.80;;
16862;SDS011;52193;48.216;-1.698;2023-06-10T00:04:04;5.68;;;5.18;;
16862;SDS011;52193;48.216;-1.698;2023-06-10T00:06:31;5.50;;;5.10;;
16862;SDS011;52193;48.216;-1.698;2023-06-10T00:09:00;5.85;;;5.22;;
16862;SDS011;52193;48.216;-1.698;2023-06-10T00:11:29;5.93;;;5.43;;
16862;SDS011;52193;48.216;-1.698;2023-06-10T00:13:56;4.82;;;4.53;;
16862;SDS011;52193;48.216;-1.698;2023-06-10T00:16:23;5.50;;;5.20;;
16862;SDS011;52193;48.216;-1.698;2023-06-10T00:18:52;5.07;;;4.78;;
16862;SDS011;52193;48.216;-1.698;2023-06-10T00:21:20;5.03;;;4.82;;
16862;SDS011;52193;48.216;-1.698;2023-06-10T00:23:49;5.25;;;4.85;;
16862;SDS011;52193;48.216;-1.698;2023-06-10T00:26:16;4.75;;;4.50;;
16862;SDS011;52193;48.216;-1.698;2023-06-10T00:28:43;5.65;;;5.18;;
16862;SDS011;52193;48.216;-1.698;2023-06-10T00:31:11;6.15;;;5.28;;
16862;SDS011;52193;48.216;-1.698;2023-06-10T00:33:38;4.72;;;4.53;;
16862;SDS011;52193;48.216;-1.698;2023-06-10T00:36:06;4.78;;;4.47;;
16862;SDS011;52193;48.216;-1.698;2023-06-10T00:38:33;4.60;;;4.30;;
16862;SDS011;52193;48.216;-1.698;2023-06-10T00:41:00;4.25;;;3.95;;
16862;SDS011;52193;48.216;-1.698;2023-06-10T00:43:27;5.25;;;4.38;;
16862;SDS011;52193;48.216;-1.698;2023-06-10T00:45:54;4.47;;;4.18;;
16862;SDS011;52193;48.216;-1.698;2023-06-10T00:48:21;4.60;;;4.18;;
16862;SDS011;52193;48.216;-1.698;2023-06-10T00:50:48;4.10;;;3.90;;
16862;SDS011;52193;48.216;-1.698;2023-06-10T00:53:16;4.43;;;4.10;;
16862;SDS011;52193;48.216;-1.698;2023-06-10T00:55:44;4.30;;;4.00;;
16862;SDS011;52193;48.216;-1.698;2023-06-10T00:58:11;4.65;;;3.90;;
16862;SDS011;52193;48.216;-1.698;2023-06-10T01:00:38;4.40;;;4.00;;
16862;SDS011;52193;48.216;-1.698;2023-06-10T01:03:05;4.30;;;3.97;;
16862;SDS011;52193;48.216;-1.698;2023-06-10T01:05:33;4.00;;;3.70;;
16862;SDS011;52193;48.216;-1.698;2023-06-10T01:08:03;4.30;;;4.00;;
16862;SDS011;52193;48.216;-1.698;2023-06-10T01:10:44;4.50;;;4.30;;
16862;SDS011;52193;48.216;-1.698;2023-06-10T01:13:17;5.05;;;4.72;;
16862;SDS011;52193;48.216;-1.698;2023-06-10T01:15:48;5.28;;;4.90;;
16862;SDS011;52193;48.216;-1.698;2023-06-10T01:18:17;4.55;;;4.25;;
16862;SDS011;52193;48.216;-1.698;2023-06-10T01:20:44;4.40;;;4.20;;
16862;SDS011;52193;48.216;-1.698;2023-06-10T01:23:14;4.47;;;4.18;;
16862;SDS011;52193;48.216;-1.698;2023-06-10T01:25:43;5.07;;;4.70;;
16862;SDS011;52193;48.216;-1.698;2023-06-10T01:28:17;5.22;;;4.93;;
16862;SDS011;52193;48.216;-1.698;2023-06-10T01:30:48;4.20;;;3.90;;
16862;SDS011;52193;48.216;-1.698;2023-06-10T01:33:23;4.72;;;4.45;;
16862;SDS011;52193;48.216;-1.698;2023-06-10T01:35:53;4.40;;;4.10;;
16862;SDS011;52193;48.216;-1.698;2023-06-10T01:38:24;4.50;;;4.13;;
16862;SDS011;52193;48.216;-1.698;2023-06-10T01:40:52;4.40;;;4.10;;
16862;SDS011;52193;48.216;-1.698;2023-06-10T01:43:21;5.18;;;4.78;;
16862;SDS011;52193;48.216;-1.698;2023-06-10T01:45:49;4.60;;;4.30;;
16862;SDS011;52193;48.216;-1.698;2023-06-10T01:48:16;4.50;;;4.20;;
16862;SDS011;52193;48.216;-1.698;2023-06-10T01:50:43;5.53;;;4.88;;
16862;SDS011;52193;48.216;-1.698;2023-06-10T01:53:10;4.80;;;4.53;;
16862;SDS011;52193;48.216;-1.698;2023-06-10T01:55:38;5.45;;;4.95;;
16862;SDS011;52193;48.216;-1.698;2023-06-10T01:58:05;8.95;;;5.57;;
16862;SDS011;52193;48.216;-1.698;2023-06-10T02:00:32;5.22;;;4.82;;
16862;SDS011;52193;48.216;-1.698;2023-06-10T02:02:59;4.97;;;4.68;;
16862;SDS011;52193;48.216;-1.698;2023-06-10T02:05:26;5.57;;;5.05;;
16862;SDS011;52193;48.216;-1.698;2023-06-10T02:07:52;5.30;;;5.00;;
16862;SDS011;52193;48.216;-1.698;2023-06-10T02:10:19;5.85;;;5.45;;
16862;SDS011;52193;48.216;-1.698;2023-06-10T02:12:48;5.30;;;5.00;;
16862;SDS011;52193;48.216;-1.698;2023-06-10T02:15:15;5.82;;;5.32;;
16862;SDS011;52193;48.216;-1.698;2023-06-10T02:17:41;6.43;;;5.95;;
16862;SDS011;52193;48.216;-1.698;2023-06-10T02:20:10;6.43;;;5.80;;
16862;SDS011;52193;48.216;-1.698;2023-06-10T02:22:38;6.57;;;6.18;;
16862;SDS011;52193;48.216;-1.698;2023-06-10T02:25:06;6.18;;;5.68;;
16862;SDS011;52193;48.216;-1.698;2023-06-10T02:27:33;6.60;;;6.10;;
16862;SDS011;52193;48.216;-1.698;2023-06-10T02:30:02;6.03;;;5.63;;
16862;SDS011;52193;48.216;-1.698;2023-06-10T02:32:29;6.35;;;5.95;;
16862;SDS011;52193;48.216;-1.698;2023-06-10T02:34:56;6.00;;;5.50;;
16862;SDS011;52193;48.216;-1.698;2023-06-10T02:37:25;6.82;;;6.32;;
16862;SDS011;52193;48.216;-1.698;2023-06-10T02:39:52;7.13;;;6.40;;
16862;SDS011;52193;48.216;-1.698;2023-06-10T02:42:19;6.55;;;6.05;;
16862;SDS011;52193;48.216;-1.698;2023-06-10T02:44:46;5.72;;;5.32;;
16862;SDS011;52193;48.216;-1.698;2023-06-10T02:47:14;5.18;;;4.78;;
16862;SDS011;52193;48.216;-1.698;2023-06-10T02:49:41;6.05;;;5.65;;
16862;SDS011;52193;48.216;-1.698;2023-06-10T02:52:08;5.70;;;5.30;;
16862;SDS011;52193;48.216;-1.698;2023-06-10T02:54:36;5.40;;;5.10;;
16862;SDS011;52193;48.216;-1.698;2023-06-10T02:57:03;5.95;;;5.55;;
16862;SDS011;52193;48.216;-1.698;2023-06-10T02:59:31;5.75;;;5.35;;
16862;SDS011;52193;48.216;-1.698;2023-06-10T03:01:58;5.13;;;4.90;;
16862;SDS011;52193;48.216;-1.698;2023-06-10T03:04:27;5.93;;;5.63;;
16862;SDS011;52193;48.216;-1.698;2023-06-10T03:06:55;5.72;;;5.30;;
16862;SDS011;52193;48.216;-1.698;2023-06-10T03:09:22;5.80;;;5.35;;
16862;SDS011;52193;48.216;-1.698;2023-06-10T03:11:49;5.93;;;5.57;;
16862;SDS011;52193;48.216;-1.698;2023-06-10T03:14:16;6.82;;;6.32;;
16862;SDS011;52193;48.216;-1.698;2023-06-10T03:16:43;6.75;;;6.30;;
16862;SDS011;52193;48.216;-1.698;2023-06-10T03:19:10;6.25;;;5.65;;
16862;SDS011;52193;48.216;-1.698;2023-06-10T03:21:38;6.60;;;6.20;;
16862;SDS011;52193;48.216;-1.698;2023-06-10T03:24:06;6.05;;;5.65;;
16862;SDS011;52193;48.216;-1.698;2023-06-10T03:26:33;5.78;;;5.38;;
16862;SDS011;52193;48.216;-1.698;2023-06-10T03:29:00;6.28;;;5.88;;
16862;SDS011;52193;48.216;-1.698;2023-06-10T03:31:27;6.45;;;6.05;;
16862;SDS011;52193;48.216;-1.698;2023-06-10T03:33:54;5.85;;;5.50;;
16862;SDS011;52193;48.216;-1.698;2023-06-10T03:36:21;5.97;;;5.57;;
16862;SDS011;52193;48.216;-1.698;2023-06-10T03:38:49;6.07;;;5.68;;
16862;SDS011;52193;48.216;-1.698;2023-06-10T03:41:17;6.30;;;5.90;;
16862;SDS011;52193;48.216;-1.698;2023-06-10T03:43:44;5.95;;;5.57;;
16862;SDS011;52193;48.216;-1.698;2023-06-10T03:46:12;7.07;;;6.65;;
16862;SDS011;52193;48.216;-1.698;2023-06-10T03:48:38;6.60;;;6.10;;
16862;SDS011;52193;48.216;-1.698;2023-06-10T03:51:06;6.55;;;6.15;;
16862;SDS011;52193;48.216;-1.698;2023-06-10T03:53:33;6.47;;;6.07;;
16862;SDS011;52193;48.216;-1.698;2023-06-10T03:56:01;7.10;;;6.60;;
16862;SDS011;52193;48.216;-1.698;2023-06-10T03:58:28;6.05;;;5.65;;
16862;SDS011;52193;48.216;-1.698;2023-06-10T04:00:55;6.57;;;6.13;;
16862;SDS011;52193;48.216;-1.698;2023-06-10T04:03:22;6.40;;;6.07;;
16862;SDS011;52193;48.216;-1.698;2023-06-10T04:05:49;6.57;;;6.18;;
16862;SDS011;52193;48.216;-1.698;2023-06-10T04:08:16;7.22;;;6.78;;
16862;SDS011;52193;48.216;-1.698;2023-06-10T04:10:43;6.68;;;6.18;;
16862;SDS011;52193;48.216;-1.698;2023-06-10T04:13:11;6.10;;;5.75;;
16862;SDS011;52193;48.216;-1.698;2023-06-10T04:15:39;6.65;;;6.25;;
16862;SDS011;52193;48.216;-1.698;2023-06-10T04:18:06;7.15;;;6.60;;
16862;SDS011;52193;48.216;-1.698;2023-06-10T04:20:33;6.30;;;5.80;;
16862;SDS011;52193;48.216;-1.698;2023-06-10T04:23:00;7.75;;;7.05;;
16862;SDS011;52193;48.216;-1.698;2023-06-10T04:25:27;7.35;;;6.95;;
16862;SDS011;52193;48.216;-1.698;2023-06-10T04:27:54;7.30;;;6.80;;
16862;SDS011;52193;48.216;-1.698;2023-06-10T04:30:22;7.45;;;6.95;;
16862;SDS011;52193;48.216;-1.698;2023-06-10T04:32:49;8.98;;;8.18;;
16862;SDS011;52193;48.216;-1.698;2023-06-10T04:35:17;10.82;;;10.07;;
16862;SDS011;52193;48.216;-1.698;2023-06-10T04:37:44;10.88;;;10.20;;
16862;SDS011;52193;48.216;-1.698;2023-06-10T04:40:11;14.98;;;13.68;;
16862;SDS011;52193;48.216;-1.698;2023-06-10T04:42:38;15.48;;;13.95;;
16862;SDS011;52193;48.216;-1.698;2023-06-10T04:45:06;13.43;;;12.25;;
16862;SDS011;52193;48.216;-1.698;2023-06-10T04:47:35;14.30;;;12.88;;
16862;SDS011;52193;48.216;-1.698;2023-06-10T04:50:02;13.52;;;12.32;;
16862;SDS011;52193;48.216;-1.698;2023-06-10T04:52:30;12.38;;;11.30;;
16862;SDS011;52193;48.216;-1.698;2023-06-10T04:54:58;13.23;;;12.10;;
16862;SDS011;52193;48.216;-1.698;2023-06-10T04:57:25;15.02;;;13.68;;
16862;SDS011;52193;48.216;-1.698;2023-06-10T04:59:52;12.68;;;11.60;;
16862;SDS011;52193;48.216;-1.698;2023-06-10T05:02:19;12.50;;;11.48;;
16862;SDS011;52193;48.216;-1.698;2023-06-10T05:04:47;13.63;;;12.15;;
16862;SDS011;52193;48.216;-1.698;2023-06-10T05:07:15;18.75;;;15.45;;
16862;SDS011;52193;48.216;-1.698;2023-06-10T05:09:42;14.82;;;13.50;;
16862;SDS011;52193;48.216;-1.698;2023-06-10T05:12:10;13.60;;;12.45;;
16862;SDS011;52193;48.216;-1.698;2023-06-10T05:14:37;11.98;;;11.02;;
16862;SDS011;52193;48.216;-1.698;2023-06-10T05:17:04;14.02;;;12.65;;
16862;SDS011;52193;48.216;-1.698;2023-06-10T05:19:32;12.32;;;11.20;;
16862;SDS011;52193;48.216;-1.698;2023-06-10T05:22:02;11.50;;;10.60;;
16862;SDS011;52193;48.216;-1.698;2023-06-10T05:24:29;13.02;;;11.70;;
16862;SDS011;52193;48.216;-1.698;2023-06-10T05:26:56;11.98;;;10.85;;
16862;SDS011;52193;48.216;-1.698;2023-06-10T05:29:23;12.65;;;11.65;;
16862;SDS011;52193;48.216;-1.698;2023-06-10T05:31:50;11.05;;;10.35;;
16862;SDS011;52193;48.216;-1.698;2023-06-10T05:34:17;11.30;;;10.48;;
16862;SDS011;52193;48.216;-1.698;2023-06-10T05:36:44;11.57;;;10.73;;
16862;SDS011;52193;48.216;-1.698;2023-06-10T05:39:13;13.18;;;12.27;;
16862;SDS011;52193;48.216;-1.698;2023-06-10T05:41:40;13.35;;;12.35;;
16862;SDS011;52193;48.216;-1.698;2023-06-10T05:44:06;11.77;;;10.98;;
16862;SDS011;52193;48.216;-1.698;2023-06-10T05:46:33;17.15;;;15.27;;
16862;SDS011;52193;48.216;-1.698;2023-06-10T05:49:00;13.93;;;12.60;;
16862;SDS011;52193;48.216;-1.698;2023-06-10T05:51:27;15.55;;;14.32;;
16862;SDS011;52193;48.216;-1.698;2023-06-10T05:53:54;15.60;;;14.20;;
16862;SDS011;52193;48.216;-1.698;2023-06-10T05:56:23;14.48;;;13.38;;
16862;SDS011;52193;48.216;-1.698;2023-06-10T05:58:50;17.05;;;14.30;;
16862;SDS011;52193;48.216;-1.698;2023-06-10T06:01:17;15.30;;;14.05;;
16862;SDS011;52193;48.216;-1.698;2023-06-10T06:03:44;14.75;;;13.40;;
16862;SDS011;52193;48.216;-1.698;2023-06-10T06:06:11;14.75;;;13.43;;
16862;SDS011;52193;48.216;-1.698;2023-06-10T06:08:38;14.30;;;13.07;;
16862;SDS011;52193;48.216;-1.698;2023-06-10T06:11:05;14.02;;;12.70;;
16862;SDS011;52193;48.216;-1.698;2023-06-10T06:13:33;15.68;;;14.20;;
16862;SDS011;52193;48.216;-1.698;2023-06-10T06:16:00;14.85;;;13.63;;
16862;SDS011;52193;48.216;-1.698;2023-06-10T06:18:27;13.45;;;12.30;;
16862;SDS011;52193;48.216;-1.698;2023-06-10T06:20:54;17.02;;;15.27;;
16862;SDS011;52193;48.216;-1.698;2023-06-10T06:23:21;12.48;;;11.38;;
16862;SDS011;52193;48.216;-1.698;2023-06-10T06:25:48;13.98;;;12.55;;
16862;SDS011;52193;48.216;-1.698;2023-06-10T06:28:15;13.80;;;12.63;;
16862;SDS011;52193;48.216;-1.698;2023-06-10T06:30:44;15.80;;;14.35;;
16862;SDS011;52193;48.216;-1.698;2023-06-10T06:33:11;16.73;;;14.95;;
16862;SDS011;52193;48.216;-1.698;2023-06-10T06:35:38;15.60;;;14.15;;
16862;SDS011;52193;48.216;-1.698;2023-06-10T06:38:05;15.95;;;14.48;;
16862;SDS011;52193;48.216;-1.698;2023-06-10T06:40:32;13.80;;;12.70;;
16862;SDS011;52193;48.216;-1.698;2023-06-10T06:42:59;17.80;;;16.00;;
16862;SDS011;52193;48.216;-1.698;2023-06-10T06:45:26;14.25;;;13.02;;
16862;SDS011;52193;48.216;-1.698;2023-06-10T06:47:54;14.55;;;13.35;;
16862;SDS011;52193;48.216;-1.698;2023-06-10T06:50:21;17.40;;;15.65;;
16862;SDS011;52193;48.216;-1.698;2023-06-10T06:52:48;14.32;;;13.13;;
16862;SDS011;52193;48.216;-1.698;2023-06-10T06:55:15;17.27;;;15.00;;
16862;SDS011;52193;48.216;-1.698;2023-06-10T06:57:42;15.73;;;14.52;;
16862;SDS011;52193;48.216;-1.698;2023-06-10T07:00:09;15.93;;;14.63;;
16862;SDS011;52193;48.216;-1.698;2023-06-10T07:02:37;15.90;;;14.35;;
16862;SDS011;52193;48.216;-1.698;2023-06-10T07:05:05;16.65;;;15.15;;
16862;SDS011;52193;48.216;-1.698;2023-06-10T07:07:33;14.32;;;13.13;;
16862;SDS011;52193;48.216;-1.698;2023-06-10T07:10:00;15.48;;;14.30;;
16862;SDS011;52193;48.216;-1.698;2023-06-10T07:12:26;14.77;;;13.45;;
16862;SDS011;52193;48.216;-1.698;2023-06-10T07:14:53;15.57;;;14.25;;
16862;SDS011;52193;48.216;-1.698;2023-06-10T07:17:20;15.40;;;14.10;;
16862;SDS011;52193;48.216;-1.698;2023-06-10T07:19:47;13.55;;;12.65;;
16862;SDS011;52193;48.216;-1.698;2023-06-10T07:22:16;16.90;;;15.40;;
16862;SDS011;52193;48.216;-1.698;2023-06-10T07:24:42;13.77;;;12.70;;
16862;SDS011;52193;48.216;-1.698;2023-06-10T07:27:09;13.35;;;12.27;;
16862;SDS011;52193;48.216;-1.698;2023-06-10T07:29:36;15.65;;;14.40;;
16862;SDS011;52193;48.216;-1.698;2023-06-10T07:32:04;16.85;;;15.07;;
16862;SDS011;52193;48.216;-1.698;2023-06-10T07:34:31;13.18;;;12.38;;
16862;SDS011;52193;48.216;-1.698;2023-06-10T07:36:58;12.93;;;12.00;;
16862;SDS011;52193;48.216;-1.698;2023-06-10T07:39:26;13.38;;;12.27;;
16862;SDS011;52193;48.216;-1.698;2023-06-10T07:41:53;14.40;;;13.23;;
16862;SDS011;52193;48.216;-1.698;2023-06-10T07:44:22;14.05;;;13.00;;
16862;SDS011;52193;48.216;-1.698;2023-06-10T07:46:49;14.32;;;13.15;;
16862;SDS011;52193;48.216;-1.698;2023-06-10T07:49:16;14.10;;;13.07;;
16862;SDS011;52193;48.216;-1.698;2023-06-10T07:51:43;14.38;;;13.00;;
16862;SDS011;52193;48.216;-1.698;2023-06-10T07:54:10;15.88;;;14.70;;
16862;SDS011;52193;48.216;-1.698;2023-06-10T07:56:39;17.25;;;15.70;;
16862;SDS011;52193;48.216;-1.698;2023-06-10T07:59:06;14.18;;;13.15;;
16862;SDS011;52193;48.216;-1.698;2023-06-10T08:01:33;15.90;;;14.68;;
16862;SDS011;52193;48.216;-1.698;2023-06-10T08:04:01;14.38;;;13.25;;
16862;SDS011;52193;48.216;-1.698;2023-06-10T08:06:29;14.75;;;13.75;;
16862;SDS011;52193;48.216;-1.698;2023-06-10T08:08:56;12.88;;;12.18;;
16862;SDS011;52193;48.216;-1.698;2023-06-10T08:11:23;13.82;;;12.93;;
16862;SDS011;52193;48.216;-1.698;2023-06-10T08:13:54;13.50;;;12.57;;
16862;SDS011;52193;48.216;-1.698;2023-06-10T08:16:21;13.63;;;12.73;;
16862;SDS011;52193;48.216;-1.698;2023-06-10T08:18:48;15.40;;;14.30;;
16862;SDS011;52193;48.216;-1.698;2023-06-10T08:21:16;14.52;;;13.63;;
16862;SDS011;52193;48.216;-1.698;2023-06-10T08:23:43;16.33;;;15.32;;
16862;SDS011;52193;48.216;-1.698;2023-06-10T08:26:10;14.75;;;13.80;;
16862;SDS011;52193;48.216;-1.698;2023-06-10T08:28:37;13.70;;;12.80;;
16862;SDS011;52193;48.216;-1.698;2023-06-10T08:31:05;14.00;;;13.10;;
16862;SDS011;52193;48.216;-1.698;2023-06-10T08:33:32;13.75;;;12.77;;
16862;SDS011;52193;48.216;-1.698;2023-06-10T08:35:59;12.25;;;11.30;;
16862;SDS011;52193;48.216;-1.698;2023-06-10T08:38:26;14.52;;;13.30;;
16862;SDS011;52193;48.216;-1.698;2023-06-10T08:40:54;11.40;;;10.60;;
16862;SDS011;52193;48.216;-1.698;2023-06-10T08:43:26;12.68;;;11.80;;
16862;SDS011;52193;48.216;-1.698;2023-06-10T08:46:00;11.48;;;10.77;;
16862;SDS011;52193;48.216;-1.698;2023-06-10T08:48:30;12.00;;;11.30;;
16862;SDS011;52193;48.216;-1.698;2023-06-10T08:50:59;12.02;;;11.27;;
16862;SDS011;52193;48.216;-1.698;2023-06-10T08:53:29;12.55;;;11.82;;
16862;SDS011;52193;48.216;-1.698;2023-06-10T08:55:59;12.75;;;11.82;;
16862;SDS011;52193;48.216;-1.698;2023-06-10T08:58:29;11.75;;;11.13;;
16862;SDS011;52193;48.216;-1.698;2023-06-10T09:00:58;12.48;;;11.68;;
16862;SDS011;52193;48.216;-1.698;2023-06-10T09:03:25;12.55;;;11.75;;
16862;SDS011;52193;48.216;-1.698;2023-06-10T09:05:54;15.02;;;14.02;;
16862;SDS011;52193;48.216;-1.698;2023-06-10T09:08:23;12.15;;;11.40;;
16862;SDS011;52193;48.216;-1.698;2023-06-10T09:10:50;14.43;;;13.30;;
16862;SDS011;52193;48.216;-1.698;2023-06-10T09:13:17;14.05;;;13.00;;
16862;SDS011;52193;48.216;-1.698;2023-06-10T09:15:44;14.27;;;13.38;;
16862;SDS011;52193;48.216;-1.698;2023-06-10T09:18:11;14.27;;;13.02;;
16862;SDS011;52193;48.216;-1.698;2023-06-10T09:20:38;13.25;;;12.45;;
16862;SDS011;52193;48.216;-1.698;2023-06-10T09:23:06;15.15;;;14.15;;
16862;SDS011;52193;48.216;-1.698;2023-06-10T09:25:34;13.00;;;12.15;;
16862;SDS011;52193;48.216;-1.698;2023-06-10T09:28:03;14.43;;;13.27;;
16862;SDS011;52193;48.216;-1.698;2023-06-10T09:30:31;13.50;;;12.57;;
16862;SDS011;52193;48.216;-1.698;2023-06-10T09:32:59;13.52;;;12.73;;
16862;SDS011;52193;48.216;-1.698;2023-06-10T09:35:28;14.40;;;13.38;;
16862;SDS011;52193;48.216;-1.698;2023-06-10T09:37:57;15.10;;;14.10;;
16862;SDS011;52193;48.216;-1.698;2023-06-10T09:40:27;13.10;;;12.10;;
16862;SDS011;52193;48.216;-1.698;2023-06-10T09:42:54;15.38;;;14.40;;
16862;SDS011;52193;48.216;-1.698;2023-06-10T09:45:22;12.88;;;12.07;;
16862;SDS011;52193;48.216;-1.698;2023-06-10T09:47:53;13.13;;;12.20;;
16862;SDS011;52193;48.216;-1.698;2023-06-10T09:50:20;13.00;;;12.00;;
16862;SDS011;52193;48.216;-1.698;2023-06-10T09:52:47;14.23;;;13.32;;
16862;SDS011;52193;48.216;-1.698;2023-06-10T09:55:14;13.55;;;12.68;;
16862;SDS011;52193;48.216;-1.698;2023-06-10T09:57:45;13.90;;;13.10;;
16862;SDS011;52193;48.216;-1.698;2023-06-10T10:00:16;12.68;;;11.77;;
16862;SDS011;52193;48.216;-1.698;2023-06-10T10:02:44;12.23;;;11.40;;
16862;SDS011;52193;48.216;-1.698;2023-06-10T10:05:12;12.95;;;12.13;;
16862;SDS011;52193;48.216;-1.698;2023-06-10T10:07:40;11.05;;;10.35;;
16862;SDS011;52193;48.216;-1.698;2023-06-10T10:10:07;11.88;;;10.88;;
16862;SDS011;52193;48.216;-1.698;2023-06-10T10:12:35;10.93;;;10.07;;
16862;SDS011;52193;48.216;-1.698;2023-06-10T10:15:06;11.32;;;10.52;;
16862;SDS011;52193;48.216;-1.698;2023-06-10T10:17:34;10.60;;;9.90;;
16862;SDS011;52193;48.216;-1.698;2023-06-10T10:20:05;11.00;;;10.30;;
16862;SDS011;52193;48.216;-1.698;2023-06-10T10:22:35;12.48;;;11.65;;
16862;SDS011;52193;48.216;-1.698;2023-06-10T10:25:06;11.80;;;11.02;;
16862;SDS011;52193;48.216;-1.698;2023-06-10T10:27:40;10.77;;;10.07;;
16862;SDS011;52193;48.216;-1.698;2023-06-10T10:30:12;11.05;;;10.35;;
16862;SDS011;52193;48.216;-1.698;2023-06-10T10:32:43;11.55;;;10.65;;
16862;SDS011;52193;48.216;-1.698;2023-06-10T10:35:23;12.55;;;11.65;;
16862;SDS011;52193;48.216;-1.698;2023-06-10T10:37:51;11.02;;;10.30;;
16862;SDS011;52193;48.216;-1.698;2023-06-10T10:40:19;12.15;;;11.15;;
16862;SDS011;52193;48.216;-1.698;2023-06-10T10:42:47;10.60;;;9.90;;
16862;SDS011;52193;48.216;-1.698;2023-06-10T10:45:16;11.77;;;10.85;;
16862;SDS011;52193;48.216;-1.698;2023-06-10T10:47:45;11.55;;;10.85;;
16862;SDS011;52193;48.216;-1.698;2023-06-10T10:50:13;10.93;;;10.15;;
16862;SDS011;52193;48.216;-1.698;2023-06-10T10:52:51;11.85;;;11.05;;
16862;SDS011;52193;48.216;-1.698;2023-06-10T10:55:19;12.45;;;11.65;;
16862;SDS011;52193;48.216;-1.698;2023-06-10T10:57:53;11.30;;;10.65;;
16862;SDS011;52193;48.216;-1.698;2023-06-10T11:00:26;14.35;;;13.27;;
16862;SDS011;52193;48.216;-1.698;2023-06-10T11:02:57;12.98;;;12.00;;
16862;SDS011;52193;48.216;-1.698;2023-06-10T11:05:31;13.55;;;12.65;;
16862;SDS011;52193;48.216;-1.698;2023-06-10T11:08:06;13.35;;;12.35;;
16862;SDS011;52193;48.216;-1.698;2023-06-10T11:10:34;12.63;;;11.82;;
16862;SDS011;52193;48.216;-1.698;2023-06-10T11:13:05;13.63;;;12.65;;
16862;SDS011;52193;48.216;-1.698;2023-06-10T11:15:37;11.63;;;10.93;;
16862;SDS011;52193;48.216;-1.698;2023-06-10T11:20:51;13.77;;;12.88;;
16862;SDS011;52193;48.216;-1.698;2023-06-10T11:23:33;14.40;;;13.40;;
16862;SDS011;52193;48.216;-1.698;2023-06-10T11:26:11;12.60;;;11.80;;
16862;SDS011;52193;48.216;-1.698;2023-06-10T11:29:02;12.40;;;11.60;;
16862;SDS011;52193;48.216;-1.698;2023-06-10T11:31:39;12.95;;;12.15;;
16862;SDS011;52193;48.216;-1.698;2023-06-10T11:34:08;12.07;;;11.27;;
16862;SDS011;52193;48.216;-1.698;2023-06-10T11:36:36;13.25;;;12.40;;
16862;SDS011;52193;48.216;-1.698;2023-06-10T11:39:07;13.63;;;12.73;;
16862;SDS011;52193;48.216;-1.698;2023-06-10T11:41:35;13.43;;;12.57;;
16862;SDS011;52193;48.216;-1.698;2023-06-10T11:44:04;14.65;;;13.55;;
16862;SDS011;52193;48.216;-1.698;2023-06-10T11:46:33;13.60;;;12.70;;
16862;SDS011;52193;48.216;-1.698;2023-06-10T11:49:02;12.93;;;12.02;;
16862;SDS011;52193;48.216;-1.698;2023-06-10T11:51:31;12.27;;;11.48;;
16862;SDS011;52193;48.216;-1.698;2023-06-10T11:54:00;13.85;;;13.05;;
16862;SDS011;52193;48.216;-1.698;2023-06-10T11:56:27;12.75;;;11.95;;
16862;SDS011;52193;48.216;-1.698;2023-06-10T11:58:56;13.43;;;12.48;;
16862;SDS011;52193;48.216;-1.698;2023-06-10T12:01:25;14.60;;;13.70;;
16862;SDS011;52193;48.216;-1.698;2023-06-10T12:03:59;12.27;;;11.40;;
16862;SDS011;52193;48.216;-1.698;2023-06-10T12:06:37;12.82;;;12.02;;
16862;SDS011;52193;48.216;-1.698;2023-06-10T12:09:05;11.40;;;10.70;;
16862;SDS011;52193;48.216;-1.698;2023-06-10T12:11:32;11.25;;;10.65;;
16862;SDS011;52193;48.216;-1.698;2023-06-10T12:13:59;12.20;;;11.50;;
16862;SDS011;52193;48.216;-1.698;2023-06-10T12:16:28;9.35;;;8.82;;
16862;SDS011;52193;48.216;-1.698;2023-06-10T12:19:02;9.98;;;9.38;;
16862;SDS011;52193;48.216;-1.698;2023-06-10T12:21:29;9.27;;;8.77;;
16862;SDS011;52193;48.216;-1.698;2023-06-10T12:24:01;12.43;;;11.48;;
16862;SDS011;52193;48.216;-1.698;2023-06-10T12:26:35;10.27;;;9.68;;
16862;SDS011;52193;48.216;-1.698;2023-06-10T12:29:12;9.95;;;9.35;;
16862;SDS011;52193;48.216;-1.698;2023-06-10T12:31:56;8.55;;;7.93;;
16862;SDS011;52193;48.216;-1.698;2023-06-10T12:34:30;7.85;;;7.38;;
16862;SDS011;52193;48.216;-1.698;2023-06-10T12:37:04;9.32;;;8.77;;
16862;SDS011;52193;48.216;-1.698;2023-06-10T12:39:38;7.15;;;6.75;;
16862;SDS011;52193;48.216;-1.698;2023-06-10T12:42:06;8.73;;;8.23;;
16862;SDS011;52193;48.216;-1.698;2023-06-10T12:44:38;8.48;;;7.97;;
16862;SDS011;52193;48.216;-1.698;2023-06-10T12:47:09;7.80;;;7.28;;
16862;SDS011;52193;48.216;-1.698;2023-06-10T12:49:38;6.43;;;6.07;;
16862;SDS011;52193;48.216;-1.698;2023-06-10T12:52:05;6.75;;;6.25;;
16862;SDS011;52193;48.216;-1.698;2023-06-10T12:54:33;7.00;;;6.57;;
16862;SDS011;52193;48.216;-1.698;2023-06-10T12:57:01;5.95;;;5.60;;
16862;SDS011;52193;48.216;-1.698;2023-06-10T12:59:28;6.40;;;6.00;;
16862;SDS011;52193;48.216;-1.698;2023-06-10T13:01:56;7.22;;;6.80;;
16862;SDS011;52193;48.216;-1.698;2023-06-10T13:04:23;6.78;;;6.38;;
16862;SDS011;52193;48.216;-1.698;2023-06-10T13:06:52;6.78;;;6.13;;
16862;SDS011;52193;48.216;-1.698;2023-06-10T13:09:18;6.30;;;5.90;;
16862;SDS011;52193;48.216;-1.698;2023-06-10T13:11:45;5.07;;;4.68;;
16862;SDS011;52193;48.216;-1.698;2023-06-10T13:14:12;5.90;;;5.53;;
16862;SDS011;52193;48.216;-1.698;2023-06-10T13:16:39;5.90;;;5.60;;
16862;SDS011;52193;48.216;-1.698;2023-06-10T13:19:06;5.10;;;4.85;;
16862;SDS011;52193;48.216;-1.698;2023-06-10T13:21:33;4.13;;;3.92;;
16862;SDS011;52193;48.216;-1.698;2023-06-10T13:24:02;4.95;;;4.65;;
16862;SDS011;52193;48.216;-1.698;2023-06-10T13:26:29;5.35;;;4.90;;
16862;SDS011;52193;48.216;-1.698;2023-06-10T13:28:56;4.97;;;4.68;;
16862;SDS011;52193;48.216;-1.698;2023-06-10T13:31:23;4.70;;;4.40;;
16862;SDS011;52193;48.216;-1.698;2023-06-10T13:33:50;4.80;;;4.50;;
16862;SDS011;52193;48.216;-1.698;2023-06-10T13:36:17;4.47;;;4.28;;
16862;SDS011;52193;48.216;-1.698;2023-06-10T13:38:45;5.00;;;4.70;;
16862;SDS011;52193;48.216;-1.698;2023-06-10T13:41:15;4.07;;;3.88;;
16862;SDS011;52193;48.216;-1.698;2023-06-10T13:43:44;4.32;;;4.13;;
16862;SDS011;52193;48.216;-1.698;2023-06-10T13:46:10;4.65;;;4.35;;
16862;SDS011;52193;48.216;-1.698;2023-06-10T13:48:38;4.72;;;4.43;;
16862;SDS011;52193;48.216;-1.698;2023-06-10T13:51:05;4.93;;;4.63;;
16862;SDS011;52193;48.216;-1.698;2023-06-10T13:53:34;4.00;;;3.80;;
16862;SDS011;52193;48.216;-1.698;2023-06-10T13:56:01;5.45;;;5.00;;
16862;SDS011;52193;48.216;-1.698;2023-06-10T13:58:29;4.25;;;4.05;;
16862;SDS011;52193;48.216;-1.698;2023-06-10T14:00:56;5.07;;;4.68;;
16862;SDS011;52193;48.216;-1.698;2023-06-10T14:03:24;3.92;;;3.63;;
16862;SDS011;52193;48.216;-1.698;2023-06-10T14:05:51;4.22;;;3.92;;
16862;SDS011;52193;48.216;-1.698;2023-06-10T14:08:18;5.10;;;4.80;;
16862;SDS011;52193;48.216;-1.698;2023-06-10T14:10:45;4.65;;;4.35;;
16862;SDS011;52193;48.216;-1.698;2023-06-10T14:13:13;5.18;;;4.88;;
16862;SDS011;52193;48.216;-1.698;2023-06-10T14:15:41;4.80;;;4.45;;
16862;SDS011;52193;48.216;-1.698;2023-06-10T14:18:08;3.97;;;3.78;;
16862;SDS011;52193;48.216;-1.698;2023-06-10T14:20:35;4.30;;;4.10;;
16862;SDS011;52193;48.216;-1.698;2023-06-10T14:23:02;4.90;;;4.45;;
16862;SDS011;52193;48.216;-1.698;2023-06-10T14:25:29;5.10;;;4.80;;
16862;SDS011;52193;48.216;-1.698;2023-06-10T14:27:56;4.30;;;4.10;;
16862;SDS011;52193;48.216;-1.698;2023-06-10T14:30:23;3.78;;;3.53;;